createdAt,value
2018-09-15T00:02:15.386Z,15.50
2018-09-15T00:04:43.933Z,15.40
2018-09-15T00:07:12.430Z,15.40
2018-09-15T00:09:40.899Z,15.40
2018-09-15T00:12:09.404Z,15.40
2018-09-15T00:14:37.899Z,15.40
2018-09-15T00:17:06.383Z,15.40
2018-09-15T00:19:34.859Z,15.40
2018-09-15T00:22:03.444Z,15.40
2018-09-15T00:24:31.960Z,15.40
2018-09-15T00:27:00.484Z,15.40
2018-09-15T00:29:28.984Z,15.50
2018-09-15T00:31:57.462Z,15.50
2018-09-15T00:34:25.919Z,15.50
2018-09-15T00:36:54.445Z,15.40
2018-09-15T00:39:22.928Z,15.40
2018-09-15T00:41:51.458Z,15.40
2018-09-15T00:44:19.890Z,15.40
2018-09-15T00:46:48.354Z,15.40
2018-09-15T00:49:16.806Z,15.40
2018-09-15T00:51:45.350Z,15.40
2018-09-15T00:54:13.815Z,15.40
2018-09-15T00:56:42.289Z,15.40
2018-09-15T00:59:10.810Z,15.40
2018-09-15T01:01:39.325Z,15.40
2018-09-15T01:04:07.770Z,15.40
2018-09-15T01:06:37.033Z,15.40
2018-09-15T01:09:07.778Z,15.40
2018-09-15T01:11:36.422Z,15.40
2018-09-15T01:14:04.919Z,15.40
2018-09-15T01:16:33.353Z,15.40
2018-09-15T01:19:01.827Z,15.30
2018-09-15T01:21:30.353Z,15.30
2018-09-15T01:23:58.794Z,15.30
2018-09-15T01:26:27.242Z,15.30
2018-09-15T01:28:56.102Z,15.20
2018-09-15T01:31:24.582Z,15.20
2018-09-15T01:33:53.660Z,15.20
2018-09-15T01:36:22.998Z,15.20
2018-09-15T01:38:51.766Z,15.20
2018-09-15T01:41:20.218Z,15.20
2018-09-15T01:43:49.227Z,15.20
2018-09-15T01:46:17.694Z,15.20
2018-09-15T01:48:46.147Z,15.20
2018-09-15T01:51:14.642Z,15.20
2018-09-15T01:53:43.145Z,15.20
2018-09-15T01:56:11.583Z,15.10
2018-09-15T01:58:40.065Z,15.10
2018-09-15T02:01:08.510Z,15.10
2018-09-15T02:03:36.979Z,15.00
2018-09-15T02:06:05.510Z,15.00
2018-09-15T02:08:33.989Z,14.90
2018-09-15T02:11:02.487Z,15.00
2018-09-15T02:13:31.021Z,15.00
2018-09-15T02:15:59.457Z,15.00
2018-09-15T02:18:27.910Z,14.90
2018-09-15T02:20:56.393Z,15.00
2018-09-15T02:23:24.886Z,15.00
2018-09-15T02:25:53.354Z,15.00
2018-09-15T02:28:21.838Z,15.00
2018-09-15T02:30:50.285Z,15.00
2018-09-15T02:33:18.722Z,15.00
2018-09-15T02:35:47.290Z,14.90
2018-09-15T02:38:15.810Z,15.00
2018-09-15T02:40:44.798Z,14.90
2018-09-15T02:43:13.267Z,14.90
2018-09-15T02:45:41.759Z,14.90
2018-09-15T02:48:10.255Z,14.80
2018-09-15T02:50:38.733Z,14.90
2018-09-15T02:53:07.291Z,14.90
2018-09-15T02:55:35.779Z,14.90
2018-09-15T02:58:04.242Z,14.80
2018-09-15T03:00:32.773Z,14.80
2018-09-15T03:03:01.243Z,14.80
2018-09-15T03:05:29.926Z,14.80
2018-09-15T03:07:58.434Z,14.90
2018-09-15T03:10:26.951Z,14.90
2018-09-15T03:12:55.484Z,14.90
2018-09-15T03:15:24.876Z,14.90
2018-09-15T03:17:53.342Z,15.00
2018-09-15T03:20:21.815Z,15.00
2018-09-15T03:22:50.382Z,15.00
2018-09-15T03:25:18.849Z,15.00
2018-09-15T03:27:47.315Z,15.10
2018-09-15T03:30:15.831Z,15.10
2018-09-15T03:32:44.276Z,15.10
2018-09-15T03:35:12.770Z,15.10
2018-09-15T03:37:41.274Z,15.10
2018-09-15T03:40:09.754Z,15.00
2018-09-15T03:42:38.224Z,15.00
2018-09-15T03:45:06.892Z,14.90
2018-09-15T03:47:35.376Z,14.90
2018-09-15T03:50:03.918Z,14.90
2018-09-15T03:52:32.425Z,14.80
2018-09-15T03:55:00.882Z,14.80
2018-09-15T03:57:29.362Z,14.70
2018-09-15T03:59:57.913Z,14.70
2018-09-15T04:02:26.410Z,14.70
2018-09-15T04:04:54.949Z,14.70
2018-09-15T04:07:23.462Z,14.80
2018-09-15T04:09:51.983Z,14.70
2018-09-15T04:12:20.467Z,14.60
2018-09-15T04:14:48.988Z,14.40
2018-09-15T04:17:17.455Z,14.20
2018-09-15T04:19:45.944Z,14.00
2018-09-15T04:22:14.532Z,13.90
2018-09-15T04:24:43.022Z,13.80
2018-09-15T04:27:11.509Z,13.80
2018-09-15T04:29:40.015Z,13.70
2018-09-15T04:32:08.502Z,13.60
2018-09-15T04:34:38.018Z,13.60
2018-09-15T04:37:06.554Z,13.60
2018-09-15T04:39:35.056Z,13.60
2018-09-15T04:42:03.575Z,13.60
2018-09-15T04:44:32.060Z,13.60
2018-09-15T04:47:00.527Z,13.60
2018-09-15T04:49:29.036Z,13.70
2018-09-15T04:51:57.550Z,13.70
2018-09-15T04:54:26.006Z,13.70
2018-09-15T04:56:54.596Z,13.70
2018-09-15T04:59:23.057Z,13.70
2018-09-15T05:01:51.515Z,13.70
2018-09-15T05:04:19.946Z,13.80
2018-09-15T05:06:48.475Z,13.80
2018-09-15T05:09:16.915Z,13.80
2018-09-15T05:11:45.374Z,13.70
2018-09-15T05:14:13.939Z,13.80
2018-09-15T05:16:42.389Z,13.80
2018-09-15T05:19:10.855Z,13.80
2018-09-15T05:21:39.326Z,13.90
2018-09-15T05:24:07.767Z,13.90
2018-09-15T05:26:36.254Z,14.00
2018-09-15T05:29:04.764Z,14.00
2018-09-15T05:31:33.363Z,14.10
2018-09-15T05:34:01.766Z,14.10
2018-09-15T05:36:30.274Z,14.10
2018-09-15T05:38:58.734Z,14.10
2018-09-15T05:41:27.170Z,14.20
2018-09-15T05:43:55.660Z,14.20
2018-09-15T05:46:24.097Z,14.20
2018-09-15T05:48:52.570Z,14.30
2018-09-15T05:51:21.067Z,14.30
2018-09-15T05:53:49.511Z,14.30
2018-09-15T05:56:18.008Z,14.40
2018-09-15T05:58:46.490Z,14.40
2018-09-15T06:01:15.002Z,14.40
2018-09-15T06:03:43.438Z,14.40
2018-09-15T06:06:11.910Z,14.50
2018-09-15T06:08:40.395Z,14.50
2018-09-15T06:11:08.990Z,14.50
2018-09-15T06:13:37.572Z,14.40
2018-09-15T06:16:06.139Z,14.40
2018-09-15T06:18:34.603Z,14.40
2018-09-15T06:21:03.150Z,14.40
2018-09-15T06:23:31.610Z,14.40
2018-09-15T06:26:00.102Z,14.50
2018-09-15T06:28:28.585Z,14.50
2018-09-15T06:30:57.084Z,14.50
2018-09-15T06:33:25.804Z,14.50
2018-09-15T06:35:54.374Z,14.60
2018-09-15T06:38:22.814Z,14.60
2018-09-15T06:40:51.254Z,14.60
2018-09-15T06:43:19.743Z,14.70
2018-09-15T06:45:48.273Z,14.70
2018-09-15T06:48:16.648Z,14.80
2018-09-15T06:50:45.126Z,14.90
2018-09-15T06:53:13.564Z,14.90
2018-09-15T06:55:42.026Z,15.00
2018-09-15T06:58:10.622Z,15.00
2018-09-15T07:00:39.063Z,15.00
2018-09-15T07:03:07.524Z,15.10
2018-09-15T07:05:36.062Z,15.00
2018-09-15T07:08:04.587Z,15.00
2018-09-15T07:10:33.034Z,15.00
2018-09-15T07:13:01.512Z,15.00
2018-09-15T07:15:30.002Z,15.00
2018-09-15T07:17:58.489Z,15.10
2018-09-15T07:20:27.078Z,15.20
2018-09-15T07:22:55.602Z,15.30
2018-09-15T07:25:24.535Z,15.40
2018-09-15T07:27:53.091Z,15.50
2018-09-15T07:30:21.718Z,15.50
2018-09-15T07:32:50.247Z,15.50
2018-09-15T07:35:18.762Z,15.50
2018-09-15T07:37:47.265Z,15.40
2018-09-15T07:40:15.728Z,15.50
2018-09-15T07:42:44.287Z,15.60
2018-09-15T07:45:12.761Z,15.80
2018-09-15T07:47:41.378Z,15.90
2018-09-15T07:50:12.890Z,16.00
2018-09-15T07:52:42.795Z,16.00
2018-09-15T07:55:11.397Z,16.00
2018-09-15T07:57:49.589Z,16.00
2018-09-15T08:00:30.127Z,15.90
2018-09-15T08:03:04.310Z,15.90
2018-09-15T08:07:02.403Z,16.00
2018-09-15T08:09:31.211Z,16.10
2018-09-15T08:11:59.827Z,16.40
2018-09-15T08:14:28.614Z,16.60
2018-09-15T08:16:57.442Z,16.50
2018-09-15T08:19:32.142Z,16.50
2018-09-15T08:22:00.879Z,16.40
2018-09-15T08:24:29.441Z,16.40
2018-09-15T08:26:59.205Z,16.30
2018-09-15T08:29:27.888Z,16.30
2018-09-15T08:31:56.662Z,16.30
2018-09-15T08:34:25.327Z,16.40
2018-09-15T08:36:55.392Z,16.50
2018-09-15T08:39:24.636Z,16.50
2018-09-15T08:41:53.212Z,16.50
2018-09-15T08:44:22.002Z,16.60
2018-09-15T08:46:50.731Z,16.60
2018-09-15T08:49:19.307Z,16.70
2018-09-15T08:51:48.025Z,16.70
2018-09-15T08:54:16.894Z,16.80
2018-09-15T08:56:45.439Z,17.00
2018-09-15T08:59:14.453Z,17.20
2018-09-15T09:01:44.303Z,17.40
2018-09-15T09:04:13.341Z,17.40
2018-09-15T09:06:42.940Z,17.60
2018-09-15T09:09:12.654Z,17.80
2018-09-15T09:11:44.077Z,18.00
2018-09-15T09:14:13.072Z,18.20
2018-09-15T09:16:42.611Z,18.30
2018-09-15T09:19:12.203Z,18.20
2018-09-15T09:21:43.460Z,18.20
2018-09-15T09:24:13.235Z,18.30
2018-09-15T09:26:41.906Z,18.40
2018-09-15T09:29:10.427Z,18.40
2018-09-15T09:31:40.506Z,18.50
2018-09-15T09:34:10.037Z,18.60
2018-09-15T09:36:40.362Z,18.70
2018-09-15T09:39:11.712Z,18.70
2018-09-15T09:41:42.554Z,18.70
2018-09-15T09:44:11.160Z,18.70
2018-09-15T09:46:41.530Z,18.70
2018-09-15T09:50:40.754Z,18.90
2018-09-15T09:53:10.831Z,18.80
2018-09-15T09:55:39.416Z,18.40
2018-09-15T09:58:07.944Z,18.10
2018-09-15T10:00:41.730Z,17.90
2018-09-15T10:03:10.288Z,17.80
2018-09-15T10:05:42.179Z,17.80
2018-09-15T10:08:10.690Z,18.00
2018-09-15T10:10:39.227Z,18.20
2018-09-15T10:13:07.768Z,18.50
2018-09-15T10:15:36.290Z,18.80
2018-09-15T10:18:04.871Z,18.90
2018-09-15T10:20:34.721Z,19.10
2018-09-15T10:23:03.218Z,19.10
2018-09-15T10:25:31.719Z,19.00
2018-09-15T10:28:00.178Z,18.90
2018-09-15T10:30:28.658Z,18.60
2018-09-15T10:32:57.379Z,18.40
2018-09-15T10:35:25.866Z,18.30
2018-09-15T10:37:54.407Z,18.30
2018-09-15T10:40:23.152Z,18.30
2018-09-15T10:42:52.157Z,18.40
2018-09-15T10:48:22.751Z,18.50
2018-09-15T10:50:51.570Z,18.40
2018-09-15T10:53:20.252Z,18.30
2018-09-15T10:55:48.729Z,18.30
2018-09-15T10:58:17.312Z,18.20
2018-09-15T11:00:46.082Z,18.10
2018-09-15T11:03:15.007Z,18.00
2018-09-15T11:05:44.531Z,17.50
2018-09-15T11:08:13.068Z,16.90
2018-09-15T11:10:41.529Z,16.50
2018-09-15T11:13:10.012Z,16.10
2018-09-15T11:15:38.562Z,15.90
2018-09-15T11:18:07.035Z,16.00
2018-09-15T11:20:35.538Z,16.10
2018-09-15T11:23:04.156Z,16.40
2018-09-15T11:25:32.626Z,16.70
2018-09-15T11:28:01.119Z,17.00
2018-09-15T11:30:29.611Z,17.20
2018-09-15T11:32:58.075Z,17.30
2018-09-15T11:35:26.770Z,17.20
2018-09-15T11:37:55.273Z,17.00
2018-09-15T11:40:23.762Z,16.80
2018-09-15T11:42:52.235Z,16.60
2018-09-15T11:45:20.780Z,16.40
2018-09-15T11:47:49.274Z,16.20
2018-09-15T11:50:17.737Z,16.10
2018-09-15T11:52:46.582Z,16.20
2018-09-15T11:55:15.295Z,16.50
2018-09-15T11:57:45.391Z,16.90
2018-09-15T12:00:15.809Z,17.10
2018-09-15T12:02:45.866Z,17.30
2018-09-15T12:05:14.447Z,17.30
2018-09-15T12:07:43.050Z,17.10
2018-09-15T12:10:11.591Z,17.00
2018-09-15T12:12:40.134Z,16.70
2018-09-15T12:15:08.646Z,16.60
2018-09-15T12:17:37.122Z,16.40
2018-09-15T12:20:05.678Z,16.30
2018-09-15T12:22:34.348Z,16.30
2018-09-15T12:25:02.807Z,16.40
2018-09-15T12:27:32.192Z,16.40
2018-09-15T12:30:01.007Z,16.50
2018-09-15T12:32:29.723Z,16.60
2018-09-15T12:34:58.380Z,16.60
2018-09-15T12:37:26.865Z,16.70
2018-09-15T12:39:55.318Z,16.80
2018-09-15T12:42:23.818Z,16.80
2018-09-15T12:44:52.404Z,16.80
2018-09-15T12:47:20.835Z,16.80
2018-09-15T12:49:49.274Z,16.70
2018-09-15T12:52:17.808Z,16.70
2018-09-15T12:54:46.259Z,16.60
2018-09-15T12:57:14.914Z,16.50
2018-09-15T12:59:43.435Z,16.60
2018-09-15T13:02:11.886Z,16.60
2018-09-15T13:04:40.353Z,16.70
2018-09-15T13:07:09.080Z,16.80
2018-09-15T13:09:38.183Z,16.90
2018-09-15T13:12:06.936Z,16.90
2018-09-15T13:14:35.634Z,16.80
2018-09-15T13:17:04.154Z,16.80
2018-09-15T13:19:32.626Z,16.80
2018-09-15T13:22:01.136Z,16.80
2018-09-15T13:24:29.633Z,16.90
2018-09-15T13:26:58.218Z,17.00
2018-09-15T13:29:27.152Z,17.10
2018-09-15T13:31:55.618Z,17.10
2018-09-15T13:34:24.063Z,17.20
2018-09-15T13:36:52.570Z,17.20
2018-09-15T13:39:21.023Z,17.30
2018-09-15T13:41:49.490Z,17.30
2018-09-15T13:44:17.983Z,17.40
2018-09-15T13:46:46.530Z,17.40
2018-09-15T13:49:14.944Z,17.40
2018-09-15T13:51:43.462Z,17.30
2018-09-15T13:54:11.913Z,17.10
2018-09-15T13:56:40.346Z,17.10
2018-09-15T13:59:08.878Z,17.00
2018-09-15T14:01:37.416Z,17.00
2018-09-15T14:04:06.565Z,16.80
2018-09-15T14:06:35.170Z,16.80
2018-09-15T14:09:04.865Z,16.70
2018-09-15T14:11:33.335Z,16.70
2018-09-15T14:14:01.836Z,16.70
2018-09-15T14:16:30.356Z,16.60
2018-09-15T14:18:58.853Z,16.60
2018-09-15T14:21:28.213Z,16.70
2018-09-15T14:23:56.778Z,16.70
2018-09-15T14:26:25.234Z,16.70
2018-09-15T14:28:54.242Z,16.60
2018-09-15T14:31:22.734Z,16.60
2018-09-15T14:33:51.182Z,16.60
2018-09-15T14:36:19.865Z,16.60
2018-09-15T14:38:48.940Z,16.50
2018-09-15T14:41:17.451Z,16.50
2018-09-15T14:43:46.062Z,16.50
2018-09-15T14:46:14.646Z,16.60
2018-09-15T14:48:43.088Z,16.60
2018-09-15T14:51:11.551Z,16.60
2018-09-15T14:53:40.042Z,16.60
2018-09-15T14:56:09.030Z,16.60
2018-09-15T14:59:02.156Z,16.50
2018-09-15T15:01:31.400Z,16.50
2018-09-15T15:03:59.934Z,16.50
2018-09-15T15:06:28.427Z,16.50
2018-09-15T15:08:56.922Z,16.50
2018-09-15T15:11:25.804Z,16.40
2018-09-15T15:13:54.259Z,16.40
2018-09-15T15:16:22.757Z,16.50
2018-09-15T15:18:51.402Z,16.50
2018-09-15T15:21:19.858Z,16.50
2018-09-15T15:23:48.308Z,16.40
2018-09-15T15:26:16.948Z,16.40
2018-09-15T15:28:45.333Z,16.40
2018-09-15T15:31:13.807Z,16.30
2018-09-15T15:33:42.313Z,16.20
2018-09-15T15:36:11.074Z,16.20
2018-09-15T15:38:39.588Z,16.10
2018-09-15T15:41:08.286Z,16.10
2018-09-15T15:43:36.850Z,16.00
2018-09-15T15:46:05.940Z,15.90
2018-09-15T15:48:34.650Z,15.90
2018-09-15T15:51:03.146Z,15.90
2018-09-15T15:53:31.643Z,15.80
2018-09-15T15:56:00.194Z,15.80
2018-09-15T15:58:28.697Z,15.80
2018-09-15T16:00:57.142Z,15.80
2018-09-15T16:03:25.690Z,15.80
2018-09-15T16:05:54.215Z,15.80
2018-09-15T16:08:23.435Z,15.80
2018-09-15T16:10:52.099Z,15.70
2018-09-15T16:13:20.656Z,15.60
2018-09-15T16:15:49.438Z,15.50
2018-09-15T16:18:18.120Z,15.40
2018-09-15T16:20:46.588Z,15.30
2018-09-15T16:23:15.042Z,15.20
2018-09-15T16:25:43.667Z,15.10
2018-09-15T16:28:12.143Z,15.00
2018-09-15T16:30:40.627Z,14.90
2018-09-15T16:33:09.138Z,14.70
2018-09-15T16:35:37.719Z,14.70
2018-09-15T16:38:06.529Z,14.60
2018-09-15T16:40:35.121Z,14.50
2018-09-15T16:43:03.567Z,14.40
2018-09-15T16:45:31.982Z,14.30
2018-09-15T16:48:00.505Z,14.30
2018-09-15T16:50:28.946Z,14.30
2018-09-15T16:52:57.395Z,14.20
2018-09-15T16:55:28.099Z,14.20
2018-09-15T16:57:56.652Z,14.10
2018-09-15T17:00:25.396Z,14.10
2018-09-15T17:02:53.875Z,14.10
2018-09-15T17:05:22.406Z,14.00
2018-09-15T17:07:50.862Z,13.90
2018-09-15T17:10:19.391Z,13.90
2018-09-15T17:12:47.834Z,13.90
2018-09-15T17:15:16.475Z,13.90
2018-09-15T17:17:44.951Z,13.80
2018-09-15T17:20:13.386Z,13.80
2018-09-15T17:22:41.831Z,13.70
2018-09-15T17:25:10.325Z,13.70
2018-09-15T17:27:38.766Z,13.60
2018-09-15T17:30:07.307Z,13.70
2018-09-15T17:32:35.853Z,13.70
2018-09-15T17:35:04.328Z,13.60
2018-09-15T17:37:32.830Z,13.60
2018-09-15T17:40:01.304Z,13.60
2018-09-15T17:42:29.766Z,13.60
2018-09-15T17:44:58.214Z,13.60
2018-09-15T17:47:26.707Z,13.60
2018-09-15T17:49:55.162Z,13.50
2018-09-15T17:52:23.683Z,13.50
2018-09-15T17:54:52.310Z,13.40
2018-09-15T17:57:20.677Z,13.40
2018-09-15T17:59:49.134Z,13.40
2018-09-15T18:02:17.610Z,13.40
2018-09-15T18:04:46.856Z,13.30
2018-09-15T18:07:15.336Z,13.30
2018-09-15T18:09:44.384Z,13.20
2018-09-15T18:12:13.028Z,13.20
2018-09-15T18:14:41.522Z,13.10
2018-09-15T18:17:10.026Z,13.00
2018-09-15T18:19:38.507Z,12.90
2018-09-15T18:22:07.054Z,12.80
2018-09-15T18:24:35.542Z,12.80
2018-09-15T18:27:03.998Z,12.70
2018-09-15T18:29:32.538Z,12.70
2018-09-15T18:32:01.328Z,12.70
2018-09-15T18:34:29.816Z,12.70
2018-09-15T18:36:58.339Z,12.80
2018-09-15T18:39:26.785Z,12.80
2018-09-15T18:41:55.274Z,12.90
2018-09-15T18:44:23.904Z,12.90
2018-09-15T18:46:52.394Z,13.00
2018-09-15T18:49:20.907Z,13.00
2018-09-15T18:51:49.353Z,13.10
2018-09-15T18:54:17.951Z,13.10
2018-09-15T18:56:46.450Z,13.20
2018-09-15T18:59:14.997Z,13.30
2018-09-15T19:01:43.984Z,13.30
2018-09-15T19:04:12.524Z,13.30
2018-09-15T19:06:41.040Z,13.50
2018-09-15T19:09:11.030Z,13.50
2018-09-15T19:11:39.776Z,13.60
2018-09-15T19:14:08.422Z,13.60
2018-09-15T19:16:36.971Z,13.60
2018-09-15T19:19:05.468Z,13.50
2018-09-15T19:21:33.923Z,13.50
2018-09-15T19:24:02.470Z,13.40
2018-09-15T19:26:31.276Z,13.40
2018-09-15T19:28:59.805Z,13.30
2018-09-15T19:31:28.371Z,13.20
2018-09-15T19:33:56.879Z,13.10
2018-09-15T19:36:25.335Z,13.00
2018-09-15T19:38:53.907Z,13.00
2018-09-15T19:41:22.363Z,12.90
2018-09-15T19:43:50.846Z,12.80
2018-09-15T19:46:19.348Z,12.70
2018-09-15T19:48:47.854Z,12.70
2018-09-15T19:51:16.307Z,12.60
2018-09-15T19:53:44.885Z,12.50
2018-09-15T19:56:14.142Z,12.40
2018-09-15T19:58:42.656Z,12.40
2018-09-15T20:01:11.246Z,12.30
2018-09-15T20:03:39.701Z,12.30
2018-09-15T20:06:08.263Z,12.30
2018-09-15T20:08:38.183Z,12.30
2018-09-15T20:11:06.711Z,12.30
2018-09-15T20:13:35.156Z,12.30
2018-09-15T20:16:02.555Z,12.30
2018-09-15T20:18:29.879Z,12.30
2018-09-15T20:20:57.206Z,12.30
2018-09-15T20:23:25.734Z,12.30
2018-09-15T20:25:54.188Z,12.40
2018-09-15T20:28:22.679Z,12.40
2018-09-15T20:30:51.202Z,12.30
2018-09-15T20:33:19.781Z,12.30
2018-09-15T20:35:48.192Z,12.30
2018-09-15T20:38:16.704Z,12.30
2018-09-15T20:40:45.166Z,12.30
2018-09-15T20:43:13.658Z,12.30
2018-09-15T20:45:42.158Z,12.20
2018-09-15T20:48:10.622Z,12.20
2018-09-15T20:50:39.618Z,12.10
2018-09-15T20:53:08.194Z,12.10
2018-09-15T20:55:36.685Z,12.00
2018-09-15T20:58:05.327Z,12.00
2018-09-15T21:00:33.892Z,11.90
2018-09-15T21:03:02.424Z,11.90
2018-09-15T21:05:30.966Z,11.80
2018-09-15T21:07:59.474Z,11.70
2018-09-15T21:10:27.954Z,11.70
2018-09-15T21:12:56.433Z,11.60
2018-09-15T21:15:25.006Z,11.50
2018-09-15T21:17:53.581Z,11.50
2018-09-15T21:20:22.066Z,11.40
2018-09-15T21:22:50.581Z,11.40
2018-09-15T21:25:19.048Z,11.30
2018-09-15T21:27:47.530Z,11.30
2018-09-15T21:30:16.166Z,11.20
2018-09-15T21:32:44.635Z,11.10
2018-09-15T21:35:13.086Z,11.10
2018-09-15T21:37:41.668Z,11.10
2018-09-15T21:40:10.076Z,11.10
2018-09-15T21:42:38.550Z,11.00
2018-09-15T21:46:36.534Z,11.00
2018-09-15T21:49:05.006Z,11.00
2018-09-15T21:51:33.690Z,11.00
2018-09-15T21:54:02.317Z,10.90
2018-09-15T21:56:30.797Z,10.90
2018-09-15T21:59:00.321Z,10.90
2018-09-15T22:01:28.913Z,10.80
2018-09-15T22:04:02.710Z,10.80
2018-09-15T22:06:31.454Z,10.80
2018-09-15T22:08:59.972Z,10.80
2018-09-15T22:11:28.426Z,10.80
2018-09-15T22:13:56.934Z,10.80
2018-09-15T22:16:25.386Z,10.80
2018-09-15T22:18:53.850Z,10.80
2018-09-15T22:21:22.338Z,10.80
2018-09-15T22:23:50.799Z,10.70
2018-09-15T22:26:19.262Z,10.70
2018-09-15T22:28:47.742Z,10.60
2018-09-15T22:31:16.284Z,10.60
2018-09-15T22:33:44.754Z,10.60
2018-09-15T22:36:13.302Z,10.50
2018-09-15T22:38:41.763Z,10.60
2018-09-15T22:41:10.246Z,10.50
2018-09-15T22:43:38.755Z,10.50
2018-09-15T22:46:07.567Z,10.60
2018-09-15T22:48:36.072Z,10.50
2018-09-15T22:51:04.596Z,10.50
2018-09-15T22:53:33.076Z,10.60
2018-09-15T22:56:01.550Z,10.50
2018-09-15T22:58:30.091Z,10.50
2018-09-15T23:00:58.697Z,10.50
2018-09-15T23:03:28.872Z,10.50
2018-09-15T23:05:58.915Z,10.50
2018-09-15T23:08:27.451Z,10.50
2018-09-15T23:10:55.983Z,10.50
2018-09-15T23:13:24.502Z,10.50
2018-09-15T23:18:16.292Z,10.50
2018-09-15T23:20:44.791Z,10.40
2018-09-15T23:23:13.246Z,10.40
2018-09-15T23:25:41.702Z,10.40
2018-09-15T23:28:10.254Z,10.40
2018-09-15T23:30:39.270Z,10.40
2018-09-15T23:33:07.860Z,10.40
2018-09-15T23:35:36.343Z,10.30
2018-09-15T23:38:04.802Z,10.30
2018-09-15T23:40:33.369Z,10.30
2018-09-15T23:43:01.837Z,10.30
2018-09-15T23:45:30.310Z,10.30
2018-09-15T23:47:58.742Z,10.30
2018-09-15T23:50:27.266Z,10.30
2018-09-15T23:52:55.721Z,10.30
2018-09-15T23:55:24.158Z,10.30
2018-09-15T23:57:52.637Z,10.30
